Terminal Aerodrome Forecast
Issued by NWS

Home | Current Version | Previous Version | Text Only | Print | Product List | Glossary On
Versions: 1 2 3 4 5 6 7 8 9 10 11 12 13 14 15 16 17 18 19 20 21
000
FTUS46 KLOX 221151
TAFSBP
TAF
KSBP 221151Z 2212/2312 VRB03KT P6SM SCT012 BKN025
     FM221400 VRB03KT P6SM VCSH BKN015 OVC030
     FM221800 31008KT P6SM VCSH BKN035 OVC050
     FM222200 31015G22KT P6SM SCT035 BKN050
     FM230300 31010KT P6SM BKN025
     FM230900 VRB03KT P6SM OVC015=

USA.gov is the U.S. government's official web portal to all federal, state and local government web resources and services.